Time;durP1;ratioP1;P1;durP2;ratioP2;P2;SDS_P1;SDS_P2;PMS_P1;PMS_P2;Temp;Humidity;BMP_temperature;BMP_pressure;BME280_temperature;BME280_humidity;BME280_pressure;Samples;Min_cycle;Max_cycle;Signal;HPM_P1;HPM_P2
2022/07/25 00:02:00;;;;;;;0.00;0.00;;;;;;;18.74;96.21;101007.41;4934446;28;20062;-65
2022/07/25 00:04:25;;;;;;;0.00;0.00;;;;;;;18.67;97.19;101003.66;4930147;28;20033;-65
2022/07/25 00:06:51;;;;;;;0.00;0.00;;;;;;;18.70;97.27;101005.16;4932374;28;20034;-65
2022/07/25 00:09:16;;;;;;;0.00;0.00;;;;;;;18.73;96.84;101002.97;4932860;28;20058;-65
2022/07/25 00:11:41;;;;;;;0.00;0.00;;;;;;;18.77;97.64;101000.75;4930597;28;20118;-65
2022/07/25 00:14:07;;;;;;;0.00;0.00;;;;;;;18.76;95.99;101000.94;4929996;28;20027;-65
2022/07/25 00:16:32;;;;;;;0.03;0.03;;;;;;;18.73;95.92;101002.97;4931372;28;20057;-65
2022/07/25 00:19:00;;;;;;;0.00;0.00;;;;;;;18.78;95.83;100991.56;4930198;28;20372;-65
2022/07/25 00:21:25;;;;;;;0.00;0.00;;;;;;;18.89;95.92;100998.53;4928047;28;20023;-65
2022/07/25 00:23:50;;;;;;;0.00;0.00;;;;;;;18.96;95.21;100990.56;4933955;28;20028;-65
2022/07/25 00:26:16;;;;;;;0.10;0.00;;;;;;;19.01;95.51;100985.47;4930804;28;20118;-65
2022/07/25 00:28:42;;;;;;;0.10;0.10;;;;;;;19.07;95.43;100983.97;4934766;28;20035;-65
2022/07/25 00:31:07;;;;;;;0.00;0.00;;;;;;;19.16;94.57;100981.03;4933946;28;20035;-65
2022/07/25 00:33:32;;;;;;;0.00;0.00;;;;;;;19.18;94.27;100980.84;4933895;28;20039;-65
2022/07/25 00:35:58;;;;;;;0.00;0.00;;;;;;;19.18;94.49;100980.84;4928346;28;20070;-65
2022/07/25 00:38:23;;;;;;;0.00;0.00;;;;;;;19.15;94.28;100982.06;4932441;28;20122;-65
2022/07/25 00:40:48;;;;;;;0.00;0.00;;;;;;;19.15;94.69;100979.34;4933021;28;20431;-65
2022/07/25 00:43:14;;;;;;;0.00;0.00;;;;;;;19.12;93.80;100976.97;4932164;28;20483;-65
2022/07/25 00:45:39;;;;;;;0.00;0.00;;;;;;;19.01;93.62;100969.16;4932713;28;20529;-65
2022/07/25 00:48:06;;;;;;;0.00;0.00;;;;;;;18.94;94.44;100962.66;4938228;28;20566;-65
2022/07/25 00:50:31;;;;;;;0.00;0.00;;;;;;;18.87;94.90;100966.09;4929312;28;20038;-65
2022/07/25 00:52:57;;;;;;;0.15;0.00;;;;;;;18.68;95.05;100944.66;4930416;28;20027;-65
2022/07/25 00:55:22;;;;;;;0.00;0.00;;;;;;;18.70;96.00;100957.06;4930495;28;20480;-65
2022/07/25 00:57:48;;;;;;;0.00;0.00;;;;;;;18.63;95.94;100947.91;4927776;28;21759;-65
2022/07/25 01:00:15;;;;;;;0.10;0.10;;;;;;;18.47;95.57;100928.88;4928979;28;20031;-65
2022/07/25 01:02:40;;;;;;;0.00;0.00;;;;;;;18.44;95.85;100933.63;4931525;28;20054;-65
2022/07/25 01:05:07;;;;;;;0.00;0.00;;;;;;;18.49;96.41;100941.25;4934909;28;20503;-65
2022/07/25 01:07:32;;;;;;;0.00;0.00;;;;;;;18.40;96.95;100940.41;4928876;28;20031;-65
2022/07/25 01:09:58;;;;;;;0.00;0.00;;;;;;;18.41;96.94;100935.81;4922536;28;20463;-65
2022/07/25 01:12:23;;;;;;;0.00;0.00;;;;;;;18.38;97.04;100939.72;4928029;28;20032;-65
2022/07/25 01:14:48;;;;;;;0.00;0.00;;;;;;;18.37;96.97;100929.03;4925991;28;20145;-65
2022/07/25 01:17:14;;;;;;;0.00;0.00;;;;;;;18.34;97.06;100929.38;4934025;28;20031;-65
2022/07/25 01:19:39;;;;;;;0.10;0.10;;;;;;;18.33;97.26;100924.97;4929642;28;20734;-65
2022/07/25 01:22:05;;;;;;;0.10;0.10;;;;;;;18.37;97.55;100924.44;4928104;28;20053;-65
2022/07/25 01:24:32;;;;;;;0.00;0.00;;;;;;;18.43;97.33;100914.75;4930147;28;20626;-66
2022/07/25 01:26:58;;;;;;;0.08;0.08;;;;;;;18.50;96.75;100917.66;4926978;28;20039;-66
2022/07/25 01:29:23;;;;;;;0.00;0.00;;;;;;;18.56;96.77;100915.09;4927287;28;20058;-65
2022/07/25 01:31:48;;;;;;;0.00;0.00;;;;;;;18.71;95.53;100912.53;4929467;28;20312;-65
2022/07/25 01:34:14;;;;;;;0.00;0.00;;;;;;;18.84;94.83;100906.59;4931365;28;20034;-65
2022/07/25 01:36:39;;;;;;;0.00;0.00;;;;;;;18.96;93.84;100909.81;4932512;28;20454;-65
2022/07/25 01:39:04;;;;;;;0.00;0.00;;;;;;;19.10;92.78;100900.09;4930197;28;20027;-65
2022/07/25 01:41:30;;;;;;;0.05;0.05;;;;;;;19.15;92.46;100903.16;4931994;28;20031;-65
2022/07/25 01:43:55;;;;;;;0.03;0.03;;;;;;;19.24;91.13;100898.53;4928133;28;20038;-65
2022/07/25 01:46:20;;;;;;;0.00;0.00;;;;;;;19.25;92.53;100897.50;4929997;28;20039;-65
2022/07/25 01:48:46;;;;;;;0.00;0.00;;;;;;;19.25;92.00;100894.78;4925617;28;20457;-65
2022/07/25 01:51:11;;;;;;;0.00;0.00;;;;;;;19.43;89.36;100883.66;4927036;28;20023;-65
2022/07/25 01:53:36;;;;;;;0.10;0.10;;;;;;;19.64;88.14;100887.63;4931189;28;20031;-65
2022/07/25 01:56:03;;;;;;;0.00;0.00;;;;;;;19.78;87.39;100886.03;4928989;28;20043;-65
2022/07/25 01:58:29;;;;;;;0.00;0.00;;;;;;;19.85;85.70;100880.69;4939779;28;20031;-65
2022/07/25 02:00:54;;;;;;;0.00;0.00;;;;;;;19.87;85.28;100865.03;4930819;28;20054;-65
2022/07/25 02:03:31;;;;;;;0.00;0.00;;;;;;;20.09;84.23;100882.44;4927913;28;20563;-65
2022/07/25 02:05:58;;;;;;;0.13;0.13;;;;;;;20.15;83.14;100876.25;4929076;28;20110;-65
2022/07/25 02:08:23;;;;;;;0.00;0.00;;;;;;;20.23;82.69;100867.19;4926190;28;20153;-65
2022/07/25 02:10:49;;;;;;;0.00;0.00;;;;;;;20.27;82.15;100863.03;4932060;28;20368;-65
2022/07/25 02:13:14;;;;;;;0.00;0.00;;;;;;;20.29;81.58;100869.16;4930801;28;20134;-65
2022/07/25 02:15:40;;;;;;;0.00;0.00;;;;;;;20.30;81.86;100859.13;4934331;28;20046;-65
2022/07/25 02:18:05;;;;;;;0.00;0.00;;;;;;;20.34;81.25;100861.28;4945811;28;20030;-66
2022/07/25 02:20:30;;;;;;;0.00;0.00;;;;;;;20.15;81.41;100839.97;4946447;28;20387;-65
2022/07/25 02:22:56;;;;;;;0.00;0.00;;;;;;;20.24;81.23;100844.34;4930833;28;20313;-66
2022/07/25 02:25:21;;;;;;;0.00;0.00;;;;;;;20.28;80.76;100856.56;4938862;28;20504;-65
2022/07/25 02:27:46;;;;;;;0.00;0.00;;;;;;;20.17;80.60;100837.94;4934332;28;20608;-65
2022/07/25 02:30:12;;;;;;;0.10;0.10;;;;;;;20.21;80.93;100831.09;4938201;28;20038;-65
2022/07/25 02:32:37;;;;;;;0.00;0.00;;;;;;;20.25;81.04;100847.91;4943631;28;20035;-65
2022/07/25 02:35:05;;;;;;;0.00;0.00;;;;;;;20.19;80.34;100836.69;4943503;28;20293;-65
2022/07/25 02:37:30;;;;;;;0.00;0.00;;;;;;;20.15;80.00;100831.81;4948887;28;20031;-65
2022/07/25 02:39:55;;;;;;;0.00;0.00;;;;;;;20.24;80.32;100836.16;4940846;28;20035;-65
2022/07/25 02:42:21;;;;;;;0.00;0.00;;;;;;;20.18;80.33;100845.06;4948912;28;20071;-66
2022/07/25 02:44:46;;;;;;;0.10;0.10;;;;;;;20.14;80.29;100844.56;4934359;29;20062;-65
2022/07/25 02:47:11;;;;;;;0.00;0.00;;;;;;;19.98;80.89;100840.13;4933139;28;20502;-65
2022/07/25 02:49:36;;;;;;;0.00;0.00;;;;;;;20.12;80.28;100840.34;4932188;28;20039;-66
2022/07/25 02:52:02;;;;;;;0.00;0.00;;;;;;;20.06;80.34;100837.31;4933292;28;20067;-66
2022/07/25 02:54:27;;;;;;;0.00;0.00;;;;;;;20.13;80.28;100829.25;4936928;28;20404;-65
2022/07/25 02:56:53;;;;;;;0.00;0.00;;;;;;;20.09;80.02;100825.22;4931691;28;20031;-66
2022/07/25 02:59:18;;;;;;;0.00;0.00;;;;;;;20.18;79.42;100812.38;4932666;28;20035;-66
2022/07/25 03:01:43;;;;;;;0.00;0.00;;;;;;;20.23;79.29;100818.94;4936859;28;20055;-65
2022/07/25 03:04:08;;;;;;;0.08;0.08;;;;;;;20.14;79.29;100817.31;4935214;28;20385;-66
2022/07/25 03:06:34;;;;;;;0.00;0.00;;;;;;;20.03;80.33;100820.50;4932722;28;20028;-65
2022/07/25 03:08:59;;;;;;;0.00;0.00;;;;;;;19.88;81.05;100815.81;4945165;28;20081;-66
2022/07/25 03:11:25;;;;;;;0.10;0.10;;;;;;;19.74;80.89;100794.78;4945149;28;20126;-66
2022/07/25 03:13:51;;;;;;;0.00;0.00;;;;;;;19.62;81.57;100799.81;4930916;28;20499;-65
2022/07/25 03:16:16;;;;;;;0.10;0.10;;;;;;;19.74;81.46;100802.97;4932935;28;20527;-65
2022/07/25 03:18:41;;;;;;;0.00;0.00;;;;;;;19.56;82.44;100811.41;4928988;28;20071;-65
2022/07/25 03:21:06;;;;;;;0.00;0.00;;;;;;;19.63;81.80;100810.50;4928354;28;20067;-66
2022/07/25 03:23:32;;;;;;;0.08;0.08;;;;;;;19.56;81.97;100800.53;4927158;28;20046;-66
2022/07/25 03:25:57;;;;;;;0.00;0.00;;;;;;;19.57;81.83;100803.09;4929386;28;20034;-66
2022/07/25 03:28:23;;;;;;;0.10;0.10;;;;;;;19.69;81.36;100795.34;4932338;28;20134;-65
2022/07/25 03:30:49;;;;;;;0.00;0.00;;;;;;;19.58;81.86;100788.44;4931484;28;20504;-66
2022/07/25 03:33:14;;;;;;;0.10;0.10;;;;;;;19.56;81.67;100770.56;4929803;28;20043;-66
2022/07/25 03:35:39;;;;;;;0.00;0.00;;;;;;;19.64;81.52;100778.69;4931504;28;20166;-66
2022/07/25 03:38:04;;;;;;;0.03;0.03;;;;;;;19.62;81.54;100781.59;4940489;28;20019;-66
2022/07/25 03:40:30;;;;;;;0.10;0.10;;;;;;;19.63;81.80;100785.16;4934831;28;20039;-66
2022/07/25 03:42:56;;;;;;;0.00;0.00;;;;;;;19.61;82.05;100789.94;4935607;28;20853;-65
2022/07/25 03:45:21;;;;;;;0.10;0.00;;;;;;;19.54;82.05;100794.41;4937234;28;20098;-65
2022/07/25 03:47:47;;;;;;;0.00;0.00;;;;;;;19.49;82.44;100793.06;4932479;28;20030;-65
2022/07/25 03:50:12;;;;;;;0.10;0.10;;;;;;;19.48;82.66;100785.94;4935569;28;20035;-65
2022/07/25 03:52:37;;;;;;;0.00;0.00;;;;;;;19.51;82.76;100786.59;4931272;28;20090;-65
2022/07/25 03:55:08;;;;;;;0.00;0.00;;;;;;;19.44;82.68;100784.63;4933495;28;20030;-65
2022/07/25 03:57:33;;;;;;;0.10;0.00;;;;;;;19.46;83.16;100785.28;4930432;28;20023;-65
2022/07/25 03:59:58;;;;;;;0.00;0.00;;;;;;;19.33;83.03;100763.22;4930004;28;20046;-66
2022/07/25 04:02:24;;;;;;;0.00;0.00;;;;;;;19.38;83.62;100776.28;4931087;28;20114;-65
2022/07/25 04:04:50;;;;;;;0.00;0.00;;;;;;;19.41;83.65;100776.81;4944441;28;20114;-65
2022/07/25 04:07:15;;;;;;;0.00;0.00;;;;;;;19.31;83.76;100768.88;4940300;28;20027;-66
2022/07/25 04:09:41;;;;;;;0.00;0.00;;;;;;;19.66;81.89;100773.06;4936098;28;20439;-65
2022/07/25 04:12:06;;;;;;;0.05;0.05;;;;;;;19.53;82.31;100760.91;4931876;28;20375;-66
2022/07/25 04:14:31;;;;;;;0.17;0.17;;;;;;;19.54;82.94;100769.91;4951030;28;20435;-65
2022/07/25 04:16:57;;;;;;;0.00;0.00;;;;;;;19.56;82.75;100757.81;4932640;28;20093;-66
2022/07/25 04:19:22;;;;;;;0.80;0.03;;;;;;;19.72;81.39;100758.72;4935614;28;20047;-65
2022/07/25 04:21:47;;;;;;;0.10;0.10;;;;;;;19.55;81.94;100747.97;4923092;29;20055;-66
2022/07/25 04:24:13;;;;;;;0.10;0.10;;;;;;;19.63;82.05;100766.94;4932946;28;20650;-65
2022/07/25 04:26:38;;;;;;;0.10;0.00;;;;;;;19.54;83.64;100764.47;4933121;28;20207;-65
2022/07/25 04:29:03;;;;;;;0.00;0.00;;;;;;;19.44;83.14;100753.81;4929396;28;20122;-65
2022/07/25 04:31:29;;;;;;;0.00;0.00;;;;;;;19.56;82.55;100748.78;4935994;28;20028;-66
2022/07/25 04:33:54;;;;;;;0.00;0.00;;;;;;;19.58;83.04;100760.34;4938758;28;20036;-65
2022/07/25 04:36:20;;;;;;;0.00;0.00;;;;;;;19.66;82.24;100751.25;4928054;28;20039;-65
2022/07/25 04:38:45;;;;;;;0.00;0.00;;;;;;;19.81;81.37;100763.09;4947042;28;20028;-65
2022/07/25 04:41:10;;;;;;;0.00;0.00;;;;;;;19.90;80.73;100763.88;4929714;28;20360;-65
2022/07/25 04:43:36;;;;;;;0.08;0.08;;;;;;;19.75;81.43;100734.69;4930321;28;20054;-65
2022/07/25 04:46:01;;;;;;;0.08;0.08;;;;;;;20.02;80.61;100762.41;4936759;28;20110;-65
2022/07/25 04:48:26;;;;;;;0.20;0.03;;;;;;;19.90;81.26;100737.47;4935549;28;20063;-65
2022/07/25 04:50:52;;;;;;;0.00;0.00;;;;;;;20.05;81.04;100736.69;4936868;28;20167;-69
2022/07/25 04:53:17;;;;;;;0.08;0.08;;;;;;;20.04;82.12;100756.78;4935606;28;20118;-64
2022/07/25 04:55:42;;;;;;;0.00;0.00;;;;;;;20.00;82.45;100752.72;4935902;28;20063;-65
2022/07/25 04:58:08;;;;;;;0.03;0.03;;;;;;;20.11;81.30;100762.34;4929668;28;20038;-66
2022/07/25 05:00:33;;;;;;;0.00;0.00;;;;;;;20.22;80.53;100762.75;4930475;28;20039;-66
2022/07/25 05:02:58;;;;;;;0.00;0.00;;;;;;;20.38;80.44;100766.34;4928474;29;20416;-65
2022/07/25 05:05:24;;;;;;;0.00;0.00;;;;;;;20.42;80.41;100758.63;4928395;28;20126;-66
2022/07/25 05:07:54;;;;;;;0.00;0.00;;;;;;;20.61;78.89;100760.81;4930341;28;20039;-66
2022/07/25 05:10:19;;;;;;;0.00;0.00;;;;;;;20.66;78.09;100757.50;4931211;28;20045;-66
2022/07/25 05:12:45;;;;;;;0.10;0.00;;;;;;;20.73;78.11;100760.34;4939822;29;20023;-65
2022/07/25 05:15:11;;;;;;;0.00;0.00;;;;;;;20.67;78.97;100757.31;4940922;28;20037;-66
2022/07/25 05:17:36;;;;;;;0.00;0.00;;;;;;;20.72;78.96;100750.47;4931264;29;20468;-66
2022/07/25 05:20:02;;;;;;;0.00;0.00;;;;;;;20.60;79.51;100745.47;4938750;29;20035;-66
2022/07/25 05:22:27;;;;;;;0.00;0.00;;;;;;;20.67;78.44;100746.41;4939712;28;20778;-65
2022/07/25 05:24:52;;;;;;;0.10;0.10;;;;;;;20.65;78.05;100740.31;4941225;28;20398;-66
2022/07/25 05:27:18;;;;;;;0.00;0.00;;;;;;;20.77;77.26;100748.88;4933158;29;20403;-67
2022/07/25 05:29:43;;;;;;;0.00;0.00;;;;;;;20.79;78.68;100752.28;4939403;28;20045;-66
2022/07/25 05:32:08;;;;;;;0.08;0.08;;;;;;;20.78;76.83;100749.75;4946483;29;20040;-66
2022/07/25 05:34:34;;;;;;;0.00;0.00;;;;;;;20.98;77.33;100758.16;4949378;28;20468;-66
2022/07/25 05:36:59;;;;;;;0.10;0.03;;;;;;;21.06;74.94;100743.56;4948094;28;20046;-66
2022/07/25 05:39:24;;;;;;;0.00;0.00;;;;;;;21.16;74.29;100757.75;4945073;28;20034;-66
2022/07/25 05:41:50;;;;;;;0.00;0.00;;;;;;;21.23;73.87;100755.09;4940077;28;20038;-66
2022/07/25 05:44:15;;;;;;;0.00;0.00;;;;;;;21.10;75.76;100723.03;4943076;28;20071;-66
2022/07/25 05:46:41;;;;;;;0.10;0.08;;;;;;;21.31;74.53;100746.81;4948613;29;20037;-66
2022/07/25 05:49:06;;;;;;;0.00;0.00;;;;;;;21.36;74.04;100746.22;4951186;28;20065;-66
2022/07/25 05:51:31;;;;;;;0.00;0.00;;;;;;;21.45;74.16;100742.34;4941309;29;20034;-66
2022/07/25 05:53:56;;;;;;;0.00;0.00;;;;;;;21.52;72.85;100751.44;4941019;28;20034;-66
2022/07/25 05:56:22;;;;;;;0.08;0.03;;;;;;;21.54;72.61;100749.38;4952277;28;20624;-66
2022/07/25 05:58:47;;;;;;;0.28;0.00;;;;;;;21.63;73.44;100758.31;4945092;29;20035;-66
2022/07/25 06:01:14;;;;;;;0.00;0.00;;;;;;;21.82;71.87;100762.28;4945060;28;20023;-66
2022/07/25 06:03:40;;;;;;;0.00;0.00;;;;;;;21.93;71.29;100766.38;4944784;28;20107;-67
2022/07/25 06:06:07;;;;;;;0.22;0.05;;;;;;;21.81;72.41;100766.06;4944806;28;20410;-66
2022/07/25 06:08:33;;;;;;;0.00;0.00;;;;;;;21.75;72.62;100766.84;4940139;28;20476;-66
2022/07/25 06:10:58;;;;;;;0.05;0.00;;;;;;;21.78;73.21;100760.13;4942617;28;20039;-66
2022/07/25 06:13:25;;;;;;;0.00;0.00;;;;;;;21.64;73.14;100759.16;4935484;28;20506;-66
2022/07/25 06:15:50;;;;;;;0.00;0.00;;;;;;;21.71;72.34;100762.81;4944656;28;20034;-66
2022/07/25 06:18:16;;;;;;;0.00;0.00;;;;;;;21.83;72.44;100766.72;4943230;28;20027;-66
2022/07/25 06:20:41;;;;;;;0.00;0.00;;;;;;;21.89;72.13;100765.06;4943320;29;20031;-66
2022/07/25 06:23:06;;;;;;;0.10;0.10;;;;;;;21.94;73.10;100783.59;4948204;28;20462;-65
2022/07/25 06:25:32;;;;;;;0.00;0.00;;;;;;;22.09;72.01;100784.38;4949815;29;20483;-66
2022/07/25 06:27:57;;;;;;;0.00;0.00;;;;;;;22.23;72.61;100768.94;4940941;28;20428;-66
2022/07/25 06:30:22;;;;;;;0.08;0.08;;;;;;;22.15;71.22;100780.84;4941093;28;20031;-66
2022/07/25 06:32:48;;;;;;;0.00;0.00;;;;;;;22.32;71.50;100788.78;4946915;28;20539;-66
2022/07/25 06:35:14;;;;;;;0.00;0.00;;;;;;;22.39;71.03;100784.19;4947664;28;20034;-66
2022/07/25 06:37:39;;;;;;;0.00;0.00;;;;;;;22.43;71.06;100766.34;4939429;28;20041;-67
2022/07/25 06:40:06;;;;;;;0.00;0.00;;;;;;;22.52;70.45;100756.09;4944108;28;20042;-67
2022/07/25 06:42:33;;;;;;;0.00;0.00;;;;;;;22.54;70.18;100767.69;4934655;28;20078;-67
2022/07/25 06:45:02;;;;;;;0.00;0.00;;;;;;;22.54;70.17;100766.84;4942514;28;20071;-67
2022/07/25 06:47:28;;;;;;;0.00;0.00;;;;;;;22.69;69.69;100783.16;4946216;28;20031;-66
2022/07/25 06:49:53;;;;;;;0.00;0.00;;;;;;;22.77;69.00;100788.47;4937102;28;20443;-66
2022/07/25 06:52:18;;;;;;;0.00;0.00;;;;;;;22.85;69.12;100793.75;4938181;28;20023;-67
2022/07/25 06:54:44;;;;;;;0.00;0.00;;;;;;;22.98;68.41;100776.56;4935668;28;20038;-67
2022/07/25 06:57:09;;;;;;;0.00;0.00;;;;;;;23.06;67.50;100784.59;4944060;28;20427;-69
2022/07/25 06:59:34;;;;;;;0.00;0.00;;;;;;;23.18;66.83;100784.00;4942002;28;20118;-66
2022/07/25 07:02:01;;;;;;;0.00;0.00;;;;;;;23.17;67.40;100782.34;4951531;28;20030;-66
2022/07/25 07:04:26;;;;;;;0.00;0.00;;;;;;;23.11;67.79;100751.13;4947159;29;20019;-67
2022/07/25 07:06:51;;;;;;;0.00;0.00;;;;;;;23.46;66.04;100769.38;4928853;29;20063;-65
2022/07/25 07:09:16;;;;;;;0.00;0.00;;;;;;;23.33;66.08;100749.13;4943301;28;20110;-67
2022/07/25 07:11:42;;;;;;;0.00;0.00;;;;;;;23.28;66.52;100773.56;4944071;29;20058;-66
2022/07/25 07:14:07;;;;;;;0.00;0.00;;;;;;;23.27;66.02;100760.06;4948115;28;20031;-65
2022/07/25 07:16:32;;;;;;;0.00;0.00;;;;;;;23.32;66.50;100765.75;4948090;28;20038;-66
2022/07/25 07:18:58;;;;;;;0.00;0.00;;;;;;;23.34;66.18;100766.41;4942348;29;20047;-65
2022/07/25 07:21:23;;;;;;;0.00;0.00;;;;;;;23.32;65.80;100761.13;4944488;28;20141;-66
2022/07/25 07:23:49;;;;;;;0.00;0.00;;;;;;;23.27;65.18;100763.66;4936569;28;20028;-67
2022/07/25 07:26:14;;;;;;;0.00;0.00;;;;;;;23.29;65.48;100761.53;4941477;28;20078;-66
2022/07/25 07:28:40;;;;;;;0.00;0.00;;;;;;;23.10;65.63;100743.97;4939321;28;20054;-66
2022/07/25 07:31:05;;;;;;;0.00;0.00;;;;;;;23.23;65.25;100756.06;4941299;28;20152;-67
2022/07/25 07:33:32;;;;;;;0.00;0.00;;;;;;;23.24;65.58;100766.78;4950734;28;20352;-67
2022/07/25 07:35:57;;;;;;;0.00;0.00;;;;;;;23.23;65.77;100775.22;4945123;28;20406;-66
2022/07/25 07:38:23;;;;;;;0.00;0.00;;;;;;;23.18;65.60;100765.69;4943515;28;20459;-66
2022/07/25 07:40:48;;;;;;;0.00;0.00;;;;;;;23.21;65.79;100769.91;4929323;29;20049;-66
2022/07/25 07:43:14;;;;;;;0.00;0.00;;;;;;;23.30;65.66;100771.44;4940274;29;20399;-66
2022/07/25 07:45:40;;;;;;;0.00;0.00;;;;;;;23.32;65.44;100765.75;4933960;28;20418;-66
2022/07/25 07:48:06;;;;;;;0.00;0.00;;;;;;;23.44;64.51;100772.34;4942524;28;20157;-67
2022/07/25 07:50:31;;;;;;;0.10;0.00;;;;;;;23.58;64.41;100772.34;4933923;28;20461;-66
2022/07/25 07:52:57;;;;;;;0.00;0.00;;;;;;;23.63;63.05;100776.19;4938518;28;20035;-66
2022/07/25 07:58:07;;;;;;;0.00;0.00;;;;;;;23.86;62.92;100777.69;4944752;29;20673;-66
2022/07/25 08:00:38;;;;;;;0.00;0.00;;;;;;;23.94;63.15;100787.59;4941688;28;20044;-67
2022/07/25 08:03:05;;;;;;;0.00;0.00;;;;;;;23.70;64.64;100787.16;4944856;28;20082;-66
2022/07/25 08:05:33;;;;;;;0.00;0.00;;;;;;;23.81;64.52;100791.16;4943815;28;20032;-67
2022/07/25 08:07:59;;;;;;;0.00;0.00;;;;;;;23.75;64.02;100773.66;4948008;28;20511;-69
2022/07/25 08:10:26;;;;;;;0.00;0.00;;;;;;;23.87;63.45;100789.47;4935787;29;20032;-69
2022/07/25 08:12:52;;;;;;;0.10;0.00;;;;;;;23.85;63.71;100780.63;4943005;29;20031;-68
2022/07/25 08:15:18;;;;;;;0.00;0.00;;;;;;;23.71;64.88;100787.97;4944462;29;20030;-69
2022/07/25 08:17:45;;;;;;;0.00;0.00;;;;;;;23.77;64.78;100795.38;4937049;28;20030;-67
2022/07/25 08:20:10;;;;;;;0.00;0.00;;;;;;;24.08;64.27;100791.22;4933174;29;20035;-67
2022/07/25 08:22:41;;;;;;;0.00;0.00;;;;;;;24.31;63.60;100790.81;4931492;28;20435;-68
2022/07/25 08:25:13;;;;;;;0.43;0.00;;;;;;;24.59;63.57;100789.72;4952062;28;20023;-67
2022/07/25 08:27:38;;;;;;;0.00;0.00;;;;;;;24.79;63.20;100784.19;4938775;29;20581;-67
2022/07/25 08:30:05;;;;;;;0.00;0.00;;;;;;;25.04;62.78;100791.69;4935890;28;20118;-68
2022/07/25 08:32:30;;;;;;;0.00;0.00;;;;;;;25.01;61.84;100787.50;4940881;28;20483;-67
2022/07/25 08:34:56;;;;;;;0.00;0.00;;;;;;;24.93;62.17;100776.75;4939257;28;20038;-68
2022/07/25 08:37:21;;;;;;;0.00;0.00;;;;;;;25.08;62.38;100797.63;4936506;28;20042;-67
2022/07/25 08:39:47;;;;;;;0.00;0.00;;;;;;;25.30;61.42;100782.50;4940009;28;20034;-67
2022/07/25 08:42:13;;;;;;;0.00;0.00;;;;;;;25.63;61.29;100788.09;4935443;29;20034;-68
2022/07/25 08:44:41;;;;;;;0.00;0.00;;;;;;;25.82;62.23;100778.03;4938885;28;20023;-68
2022/07/25 08:47:09;;;;;;;0.00;0.00;;;;;;;25.88;61.91;100793.59;4934459;28;20039;-68
2022/07/25 08:49:34;;;;;;;0.00;0.00;;;;;;;25.65;62.45;100778.53;4934497;28;20252;-67
2022/07/25 08:52:00;;;;;;;0.00;0.00;;;;;;;25.79;61.18;100794.97;4935423;28;20035;-68
2022/07/25 08:54:25;;;;;;;0.00;0.00;;;;;;;25.75;60.64;100802.78;4937365;29;20085;-68
2022/07/25 08:56:50;;;;;;;0.00;0.00;;;;;;;25.74;60.97;100793.72;4936619;28;20067;-68
2022/07/25 08:59:16;;;;;;;0.00;0.00;;;;;;;25.73;61.13;100794.78;4929552;29;20028;-67
2022/07/25 09:01:41;;;;;;;0.00;0.00;;;;;;;25.98;60.85;100798.59;4930007;28;20042;-69
2022/07/25 09:04:08;;;;;;;0.00;0.00;;;;;;;25.62;61.14;100806.47;4931612;28;20035;-68
2022/07/25 09:06:33;;;;;;;0.00;0.00;;;;;;;25.77;60.18;100797.09;4936963;29;20023;-68
2022/07/25 09:08:59;;;;;;;0.00;0.00;;;;;;;25.54;62.19;100796.56;4928014;28;20082;-69
2022/07/25 09:11:28;;;;;;;0.00;0.00;;;;;;;25.72;61.37;100803.22;4925887;28;20043;-72
2022/07/25 09:13:58;;;;;;;0.00;0.00;;;;;;;26.02;61.49;100805.34;4939641;28;20440;-67
2022/07/25 09:16:35;;;;;;;0.00;0.00;;;;;;;26.34;63.11;100808.09;4942373;28;20034;-67
2022/07/25 09:19:14;;;;;;;0.00;0.00;;;;;;;26.37;59.76;100802.13;4936546;28;20121;-67
2022/07/25 09:21:41;;;;;;;0.00;0.00;;;;;;;26.35;60.38;100809.75;4933723;28;20073;-67
2022/07/25 09:24:17;;;;;;;0.00;0.00;;;;;;;26.11;60.07;100805.91;4936433;28;20078;-67
2022/07/25 09:26:44;;;;;;;0.00;0.00;;;;;;;26.22;59.90;100816.22;4936524;28;20031;-67
2022/07/25 09:29:22;;;;;;;0.00;0.00;;;;;;;25.99;60.65;100808.53;4934934;28;20420;-67
2022/07/25 09:31:47;;;;;;;0.00;0.00;;;;;;;26.10;61.43;100816.09;4938768;28;20023;-67
2022/07/25 09:34:16;;;;;;;0.00;0.00;;;;;;;26.37;61.71;100818.66;4944682;28;20467;-67
2022/07/25 09:36:52;;;;;;;0.00;0.00;;;;;;;26.77;60.69;100828.44;4934709;28;20034;-70
2022/07/25 09:39:17;;;;;;;0.00;0.00;;;;;;;26.70;60.25;100819.38;4938238;28;20106;-69
2022/07/25 09:41:43;;;;;;;0.05;0.05;;;;;;;26.58;60.69;100833.91;4933367;28;20055;-66
2022/07/25 09:44:16;;;;;;;0.00;0.00;;;;;;;26.67;59.88;100833.59;4939535;28;20031;-68
2022/07/25 09:46:42;;;;;;;0.00;0.00;;;;;;;26.68;59.84;100838.03;4935343;28;20027;-67
2022/07/25 09:49:08;;;;;;;0.00;0.00;;;;;;;27.04;58.04;100841.94;4940787;29;20035;-67
2022/07/25 09:51:34;;;;;;;0.00;0.00;;;;;;;26.86;57.81;100834.50;4935040;28;20031;-67
2022/07/25 09:54:01;;;;;;;0.00;0.00;;;;;;;26.78;58.26;100852.13;4939329;28;20073;-69
2022/07/25 09:56:26;;;;;;;0.00;0.00;;;;;;;26.76;60.80;100852.34;4933680;29;20027;-66
2022/07/25 09:58:52;;;;;;;0.00;0.00;;;;;;;26.92;59.97;100853.69;4938172;28;20041;-68
2022/07/25 10:01:21;;;;;;;0.00;0.00;;;;;;;27.06;57.08;100857.16;4939253;29;20067;-68
2022/07/25 10:03:50;;;;;;;0.03;0.03;;;;;;;27.19;54.83;100852.56;4940198;28;20023;-68
2022/07/25 10:06:36;;;;;;;0.00;0.00;;;;;;;27.31;53.63;100841.63;4937314;29;20414;-67
2022/07/25 10:09:01;;;;;;;0.00;0.00;;;;;;;27.38;55.07;100847.91;4936425;28;20046;-67
2022/07/25 10:11:29;;;;;;;0.00;0.00;;;;;;;27.56;54.49;100849.78;4937737;29;20438;-67
2022/07/25 10:13:55;;;;;;;0.00;0.00;;;;;;;27.57;55.26;100851.47;4935198;28;20748;-68
2022/07/25 10:16:26;;;;;;;0.00;0.00;;;;;;;27.74;54.59;100845.31;4937764;28;20027;-65
2022/07/25 10:18:53;;;;;;;0.00;0.00;;;;;;;27.81;53.75;100848.81;4937903;29;20365;-68
2022/07/25 10:21:19;;;;;;;0.00;0.00;;;;;;;27.94;52.38;100853.31;4936811;28;20019;-69
2022/07/25 10:23:45;;;;;;;0.00;0.00;;;;;;;27.71;53.28;100849.38;4932455;28;20035;-66
2022/07/25 10:26:18;;;;;;;0.00;0.00;;;;;;;27.52;51.58;100857.69;4935039;28;20027;-67
2022/07/25 10:28:48;;;;;;;0.00;0.00;;;;;;;27.81;48.93;100854.34;4931696;28;20023;-67
2022/07/25 10:31:22;;;;;;;0.00;0.00;;;;;;;27.54;52.15;100869.31;4934132;28;20019;-67
2022/07/25 10:33:50;;;;;;;0.00;0.00;;;;;;;27.90;51.34;100863.94;4938854;29;20266;-65
2022/07/25 10:36:16;;;;;;;0.00;0.00;;;;;;;28.04;51.32;100866.53;4941354;28;20027;-66
2022/07/25 10:38:43;;;;;;;0.00;0.00;;;;;;;28.27;51.53;100858.31;4937745;29;20038;-66
2022/07/25 10:41:11;;;;;;;0.00;0.00;;;;;;;28.75;49.79;100861.13;4942888;28;20078;-68
2022/07/25 10:43:37;;;;;;;0.00;0.00;;;;;;;28.86;48.16;100842.88;4940786;28;20031;-67
2022/07/25 10:46:19;;;;;;;0.10;0.10;;;;;;;27.76;49.52;100848.69;4939550;29;20031;-68
2022/07/25 10:48:56;;;;;;;0.00;0.00;;;;;;;27.83;50.60;100863.19;4939908;28;20442;-68
2022/07/25 10:51:25;;;;;;;0.00;0.00;;;;;;;27.85;49.91;100838.97;4945455;28;20126;-68
2022/07/25 10:53:51;;;;;;;0.00;0.00;;;;;;;28.13;49.14;100859.59;4942918;28;20034;-66
2022/07/25 10:56:19;;;;;;;0.00;0.00;;;;;;;28.05;50.34;100846.13;4947416;28;20027;-69
2022/07/25 10:58:48;;;;;;;0.00;0.00;;;;;;;28.43;49.65;100862.31;4937896;28;20051;-67
2022/07/25 11:01:19;;;;;;;0.00;0.00;;;;;;;28.78;49.86;100860.66;4944667;28;20379;-68
2022/07/25 11:03:44;;;;;;;0.00;0.00;;;;;;;28.85;48.89;100861.38;4941415;29;20023;-67
2022/07/25 11:06:11;;;;;;;0.00;0.00;;;;;;;28.61;48.07;100865.16;4941260;29;20124;-66
2022/07/25 11:08:37;;;;;;;0.00;0.00;;;;;;;28.41;48.69;100861.69;4941586;28;20023;-67
2022/07/25 11:11:02;;;;;;;0.00;0.00;;;;;;;28.08;49.04;100862.19;4940560;29;20089;-67
2022/07/25 11:13:27;;;;;;;0.00;0.00;;;;;;;28.17;48.99;100858.06;4944763;28;20055;-67
2022/07/25 11:15:57;;;;;;;0.00;0.00;;;;;;;28.53;47.52;100864.47;4942129;28;20051;-69
2022/07/25 11:18:35;;;;;;;0.00;0.00;;;;;;;28.83;47.07;100871.84;4948807;28;20031;-68
2022/07/25 11:21:01;;;;;;;0.00;0.00;;;;;;;28.76;46.13;100864.72;4943222;28;20058;-67
2022/07/25 11:23:27;;;;;;;0.00;0.00;;;;;;;28.41;46.68;100869.13;4948327;28;20405;-65